Time;durP1;ratioP1;P1;durP2;ratioP2;P2;SDS_P1;SDS_P2;PMS_P1;PMS_P2;Temp;Humidity;BMP_temperature;BMP_pressure;BME280_temperature;BME280_humidity;BME280_pressure;Samples;Min_cycle;Max_cycle;Signal;HPM_P1;HPM_P2
2020/12/06 00:02:04;;;;;;;2.63;1.90;;;14.60;62.10;;;;;;5073885;28;20040;-68
2020/12/06 00:04:29;;;;;;;2.17;1.98;;;14.60;62.20;;;;;;5074221;28;20067;-68
2020/12/06 00:06:56;;;;;;;5.97;2.42;;;14.60;62.20;;;;;;5074109;28;20027;-69
2020/12/06 00:09:22;;;;;;;2.50;1.98;;;14.50;62.10;;;;;;5073871;28;20024;-68
2020/12/06 00:11:48;;;;;;;2.95;1.83;;;14.60;62.20;;;;;;5074166;28;20031;-68
2020/12/06 00:14:14;;;;;;;2.80;2.08;;;14.50;62.20;;;;;;5074017;28;20044;-68
2020/12/06 00:16:40;;;;;;;2.15;1.95;;;14.50;62.20;;;;;;5073976;28;20413;-68
2020/12/06 00:19:05;;;;;;;5.10;2.17;;;14.50;62.10;;;;;;5073970;28;20020;-68
2020/12/06 00:21:31;;;;;;;2.97;2.25;;;14.60;62.10;;;;;;5073466;28;20028;-68
2020/12/06 00:23:57;;;;;;;2.42;2.05;;;14.60;62.20;;;;;;5073575;28;20028;-68
2020/12/06 00:26:24;;;;;;;3.30;2.00;;;14.50;62.20;;;;;;5074345;28;20043;-68
2020/12/06 00:28:51;;;;;;;2.25;1.90;;;14.50;62.10;;;;;;5073727;28;20082;-68
2020/12/06 00:31:17;;;;;;;3.20;2.17;;;14.50;62.10;;;;;;5073477;28;20024;-68
2020/12/06 00:33:44;;;;;;;3.95;1.92;;;14.50;62.20;;;;;;5073189;28;20032;-68
2020/12/06 00:36:10;;;;;;;2.97;2.25;;;14.40;62.20;;;;;;5073559;28;20099;-68
2020/12/06 00:38:37;;;;;;;2.75;2.28;;;14.50;62.20;;;;;;5073601;28;20028;-68
2020/12/06 00:41:03;;;;;;;2.80;2.42;;;14.40;62.10;;;;;;5073448;28;20024;-68
2020/12/06 00:43:28;;;;;;;2.45;2.08;;;14.40;62.10;;;;;;5073552;28;20497;-68
2020/12/06 00:45:54;;;;;;;2.28;1.83;;;14.40;62.10;;;;;;5073151;28;20028;-68
2020/12/06 00:48:19;;;;;;;3.58;1.95;;;14.40;62.10;;;;;;5073322;28;20063;-68
2020/12/06 00:50:45;;;;;;;1.98;1.77;;;14.40;62.10;;;;;;5073041;28;20021;-68
2020/12/06 00:53:10;;;;;;;2.03;1.85;;;14.40;62.00;;;;;;5073237;28;20052;-68
2020/12/06 00:55:36;;;;;;;2.22;2.03;;;14.40;62.00;;;;;;5072930;28;20021;-68
2020/12/06 00:58:02;;;;;;;1.80;1.52;;;14.30;62.00;;;;;;5073224;28;20021;-68
2020/12/06 01:00:28;;;;;;;2.50;1.98;;;14.40;62.10;;;;;;5073111;28;20382;-68
2020/12/06 01:02:53;;;;;;;2.22;2.00;;;14.40;62.10;;;;;;5072752;28;20036;-68
2020/12/06 01:05:19;;;;;;;4.00;1.95;;;14.40;62.10;;;;;;5073134;28;20363;-68
2020/12/06 01:07:44;;;;;;;3.15;2.17;;;14.40;62.30;;;;;;5072828;28;20608;-68
2020/12/06 01:10:12;;;;;;;2.22;1.70;;;14.50;62.20;;;;;;5072821;28;20036;-68
2020/12/06 01:12:38;;;;;;;2.38;2.10;;;14.50;61.80;;;;;;5073011;28;20095;-68
2020/12/06 01:15:07;;;;;;;2.05;1.85;;;14.60;63.20;;;;;;5072931;28;20093;-68
2020/12/06 01:17:32;;;;;;;2.55;2.08;;;14.70;62.60;;;;;;5072892;28;20024;-68
2020/12/06 01:19:58;;;;;;;2.00;1.80;;;14.70;62.90;;;;;;5072884;28;20027;-68
2020/12/06 01:22:24;;;;;;;2.88;2.17;;;14.70;63.00;;;;;;5072829;28;20028;-68
2020/12/06 01:24:49;;;;;;;2.10;1.80;;;14.80;63.40;;;;;;5072508;28;20058;-68
2020/12/06 01:27:16;;;;;;;2.15;1.70;;;14.80;63.10;;;;;;5072970;28;20052;-68
2020/12/06 01:29:42;;;;;;;2.25;1.85;;;14.80;63.10;;;;;;5072735;28;20378;-68
2020/12/06 01:32:07;;;;;;;1.85;1.60;;;14.80;63.30;;;;;;5072603;28;20025;-68
2020/12/06 01:34:33;;;;;;;2.90;1.48;;;14.80;63.20;;;;;;5072832;28;20069;-68
2020/12/06 01:36:58;;;;;;;2.20;2.00;;;14.80;63.00;;;;;;5072503;28;20032;-68
2020/12/06 01:39:24;;;;;;;2.53;2.00;;;14.90;63.20;;;;;;5072676;28;20020;-68
2020/12/06 01:41:54;;;;;;;1.90;1.70;;;14.80;63.00;;;;;;5072541;28;20028;-68
2020/12/06 01:44:19;;;;;;;3.17;2.13;;;14.70;63.00;;;;;;5072123;28;20032;-68
2020/12/06 01:46:50;;;;;;;2.40;1.85;;;14.70;62.90;;;;;;5072671;28;20025;-68
2020/12/06 01:49:17;;;;;;;;;;;14.70;62.80;;;;;;5072753;28;20025;-68
2020/12/06 01:51:43;;;;;;;2.30;1.80;;;14.70;62.70;;;;;;5072607;28;19911;-68
2020/12/06 01:54:09;;;;;;;2.35;1.90;;;14.70;62.60;;;;;;5072495;28;20413;-68
2020/12/06 01:56:34;;;;;;;2.08;1.65;;;14.70;62.70;;;;;;5072505;28;20074;-68
2020/12/06 01:59:00;;;;;;;1.70;1.60;;;14.70;62.60;;;;;;5072503;28;20021;-68
2020/12/06 02:01:26;;;;;;;3.28;1.98;;;14.60;62.50;;;;;;5072305;28;20028;-68
2020/12/06 02:03:54;;;;;;;2.10;1.70;;;14.60;62.50;;;;;;5072462;28;20021;-68
2020/12/06 02:06:19;;;;;;;2.90;2.08;;;14.60;62.40;;;;;;5072092;28;20017;-68
2020/12/06 02:08:47;;;;;;;2.63;2.38;;;14.60;62.40;;;;;;5072363;28;20166;-68
2020/12/06 02:11:30;;;;;;;2.20;2.00;;;14.60;62.30;;;;;;5072130;28;20078;-68
2020/12/06 02:13:56;;;;;;;3.40;2.50;;;14.50;62.20;;;;;;5072413;28;20021;-68
2020/12/06 02:16:22;;;;;;;3.05;1.90;;;14.50;62.20;;;;;;5072338;28;20363;-68
2020/12/06 02:18:47;;;;;;;2.03;1.83;;;14.50;62.10;;;;;;5072274;28;20348;-68
2020/12/06 02:21:13;;;;;;;3.25;2.33;;;14.50;62.10;;;;;;5072235;28;20024;-68
2020/12/06 02:23:39;;;;;;;3.45;2.10;;;14.50;62.20;;;;;;5072222;28;20029;-68
2020/12/06 02:26:05;;;;;;;2.03;1.75;;;14.50;62.20;;;;;;5072214;28;20031;-68
2020/12/06 02:28:30;;;;;;;2.30;1.88;;;14.40;62.30;;;;;;5072435;28;20131;-68
2020/12/06 02:30:56;;;;;;;2.08;1.88;;;14.40;62.30;;;;;;5072495;28;20021;-68
2020/12/06 02:33:22;;;;;;;2.05;1.77;;;14.40;62.30;;;;;;5072203;28;20033;-68
2020/12/06 02:35:47;;;;;;;2.40;1.98;;;14.40;62.50;;;;;;5072123;28;20021;-68
2020/12/06 02:38:13;;;;;;;3.03;1.85;;;14.40;62.40;;;;;;5071634;28;20108;-68
2020/12/06 02:40:38;;;;;;;1.58;1.48;;;14.40;62.30;;;;;;5071798;28;20063;-68
2020/12/06 02:43:04;;;;;;;2.45;1.90;;;14.40;62.40;;;;;;5071996;28;20087;-68
2020/12/06 02:45:30;;;;;;;2.55;2.03;;;14.40;62.40;;;;;;5071962;28;20070;-68
2020/12/06 02:47:56;;;;;;;2.33;2.13;;;14.40;62.20;;;;;;5071878;28;20025;-68
2020/12/06 02:50:21;;;;;;;2.78;2.10;;;14.40;62.00;;;;;;5071979;28;20013;-68
2020/12/06 02:52:47;;;;;;;2.88;2.00;;;14.40;62.30;;;;;;5072087;28;20015;-68
2020/12/06 02:55:12;;;;;;;2.65;2.00;;;14.50;62.50;;;;;;5071965;28;20542;-68
2020/12/06 02:57:38;;;;;;;2.03;1.83;;;14.50;62.10;;;;;;5074028;28;20055;-68
2020/12/06 03:00:04;;;;;;;3.67;1.67;;;14.50;62.10;;;;;;5075579;28;20029;-68
2020/12/06 03:02:30;;;;;;;2.05;1.85;;;14.50;61.90;;;;;;5075009;28;20049;-68
2020/12/06 03:04:55;;;;;;;3.42;1.80;;;14.50;62.00;;;;;;5075399;28;20031;-68
2020/12/06 03:07:21;;;;;;;2.55;2.00;;;14.50;62.30;;;;;;5075130;28;20103;-68
2020/12/06 03:09:46;;;;;;;1.70;1.52;;;14.60;62.30;;;;;;5057025;28;20028;-67
2020/12/06 03:12:12;;;;;;;2.03;1.83;;;14.60;62.10;;;;;;5075361;28;20471;-68
2020/12/06 03:14:37;;;;;;;3.15;2.22;;;14.60;62.30;;;;;;5075184;28;20020;-68
2020/12/06 03:17:03;;;;;;;2.45;2.10;;;14.70;62.60;;;;;;5075229;28;20035;-68
2020/12/06 03:19:29;;;;;;;2.95;1.85;;;14.70;62.60;;;;;;5075152;28;20263;-68
2020/12/06 03:21:54;;;;;;;1.60;1.50;;;14.80;62.60;;;;;;5074718;28;20033;-68
2020/12/06 03:24:20;;;;;;;1.85;1.67;;;14.80;62.70;;;;;;5074778;28;20039;-68
2020/12/06 03:26:45;;;;;;;2.63;1.90;;;14.80;62.60;;;;;;5075507;28;20036;-67
2020/12/06 03:29:11;;;;;;;1.88;1.45;;;14.90;62.80;;;;;;5075097;28;20445;-68
2020/12/06 03:31:36;;;;;;;2.40;1.88;;;14.90;62.80;;;;;;5056707;28;20047;-68
2020/12/06 03:34:02;;;;;;;2.15;1.80;;;14.90;62.90;;;;;;5074630;28;20029;-68
2020/12/06 03:36:27;;;;;;;3.50;1.95;;;15.00;62.90;;;;;;5074848;28;20048;-68
2020/12/06 03:38:53;;;;;;;2.15;1.88;;;14.90;62.80;;;;;;5074495;28;20471;-69
2020/12/06 03:41:19;;;;;;;2.40;2.20;;;14.90;62.60;;;;;;5074601;28;20083;-68
2020/12/06 03:43:44;;;;;;;1.90;1.80;;;14.90;62.40;;;;;;5074714;28;20099;-68
2020/12/06 03:46:10;;;;;;;1.85;1.70;;;14.90;62.60;;;;;;5074645;28;20497;-68
2020/12/06 03:48:35;;;;;;;2.65;1.63;;;14.80;62.60;;;;;;5074589;28;20029;-68
2020/12/06 03:51:01;;;;;;;2.25;2.03;;;14.80;62.60;;;;;;5074240;28;20162;-68
2020/12/06 03:53:27;;;;;;;2.05;1.85;;;14.80;62.40;;;;;;5074205;28;20028;-68
2020/12/06 03:55:52;;;;;;;3.38;2.17;;;14.80;62.40;;;;;;5074488;28;20016;-68
2020/12/06 03:58:18;;;;;;;2.17;1.98;;;14.70;62.30;;;;;;5074344;28;20021;-68
2020/12/06 04:00:43;;;;;;;1.98;1.77;;;14.70;62.20;;;;;;5056154;28;20025;-68
2020/12/06 04:03:09;;;;;;;2.95;2.42;;;14.70;62.20;;;;;;5056046;28;20032;-68
2020/12/06 04:05:34;;;;;;;2.33;2.08;;;14.70;62.10;;;;;;5073921;28;20024;-68
2020/12/06 04:08:00;;;;;;;4.57;2.13;;;14.70;62.10;;;;;;5073802;28;20017;-68
2020/12/06 04:10:25;;;;;;;2.40;2.13;;;14.60;62.00;;;;;;5074141;28;20024;-68
2020/12/06 04:12:51;;;;;;;2.67;2.28;;;14.60;62.00;;;;;;5074124;28;20099;-68
2020/12/06 04:15:17;;;;;;;3.38;2.33;;;14.60;62.10;;;;;;5074043;28;20063;-68
2020/12/06 04:17:42;;;;;;;2.05;1.85;;;14.50;61.90;;;;;;5074005;28;20017;-68
2020/12/06 04:20:08;;;;;;;2.13;1.92;;;14.50;61.90;;;;;;5073743;28;20056;-68
2020/12/06 04:22:34;;;;;;;2.60;2.28;;;14.50;61.80;;;;;;5073591;28;20114;-68
2020/12/06 04:24:59;;;;;;;2.63;2.13;;;14.60;61.90;;;;;;5073816;28;20017;-68
2020/12/06 04:27:25;;;;;;;2.53;2.33;;;14.50;61.80;;;;;;5074345;28;20210;-68
2020/12/06 04:29:50;;;;;;;2.75;2.45;;;14.50;62.40;;;;;;5073527;28;20546;-68
2020/12/06 04:32:16;;;;;;;2.53;2.33;;;14.50;62.40;;;;;;5073462;28;20421;-68
2020/12/06 04:34:45;;;;;;;2.40;2.20;;;14.40;61.70;;;;;;5073423;28;20078;-68
2020/12/06 04:37:11;;;;;;;3.30;2.40;;;14.40;61.70;;;;;;5073611;28;20023;-68
2020/12/06 04:39:37;;;;;;;2.38;2.00;;;14.40;61.80;;;;;;5055384;28;20483;-68
2020/12/06 04:42:04;;;;;;;2.38;2.17;;;14.40;61.80;;;;;;5073420;28;20039;-68
2020/12/06 04:44:30;;;;;;;3.85;2.22;;;14.40;61.70;;;;;;5073184;28;20025;-68
2020/12/06 04:47:01;;;;;;;2.65;2.22;;;14.50;61.70;;;;;;5073404;28;20431;-68
2020/12/06 04:49:42;;;;;;;3.55;2.33;;;14.50;61.50;;;;;;5073325;28;20025;-68
2020/12/06 04:52:15;;;;;;;2.50;1.95;;;14.60;61.30;;;;;;5073342;28;20028;-68
2020/12/06 04:54:42;;;;;;;2.78;2.10;;;14.60;61.60;;;;;;5073235;28;20060;-68
2020/12/06 04:57:11;;;;;;;2.38;2.00;;;14.60;61.60;;;;;;5073238;28;20025;-68
2020/12/06 04:59:42;;;;;;;2.85;2.13;;;14.70;61.70;;;;;;5073151;28;20017;-68
2020/12/06 05:02:11;;;;;;;2.03;1.83;;;14.70;61.90;;;;;;5073098;28;20107;-69
2020/12/06 05:04:42;;;;;;;2.20;2.00;;;14.70;62.00;;;;;;5072956;28;20027;-68
2020/12/06 05:07:08;;;;;;;2.40;2.20;;;14.80;61.90;;;;;;5073132;28;20024;-68
2020/12/06 05:09:37;;;;;;;2.60;2.13;;;14.80;61.90;;;;;;5073041;28;20478;-68
2020/12/06 05:12:04;;;;;;;2.28;1.90;;;14.80;61.80;;;;;;5073061;28;20024;-68
2020/12/06 05:14:30;;;;;;;2.97;2.08;;;14.80;61.90;;;;;;5072923;28;20142;-68
2020/12/06 05:16:57;;;;;;;2.08;1.88;;;14.90;61.80;;;;;;5072925;28;20056;-68
2020/12/06 05:19:26;;;;;;;2.65;2.03;;;14.90;61.80;;;;;;5072170;28;20013;-68
2020/12/06 05:21:53;;;;;;;2.65;2.22;;;14.90;61.70;;;;;;5073106;28;20028;-68
2020/12/06 05:24:18;;;;;;;2.30;2.00;;;14.80;61.70;;;;;;5072886;28;20371;-68
2020/12/06 05:26:44;;;;;;;2.95;2.40;;;14.80;61.80;;;;;;5073003;28;20025;-68
2020/12/06 05:29:11;;;;;;;4.47;2.70;;;14.70;61.40;;;;;;5072964;28;20040;-69
2020/12/06 05:31:36;;;;;;;2.70;2.05;;;14.70;61.40;;;;;;5072490;28;20051;-68
2020/12/06 05:34:02;;;;;;;2.20;2.00;;;14.70;61.40;;;;;;5072432;28;20028;-68
2020/12/06 05:36:28;;;;;;;2.20;1.98;;;14.70;61.40;;;;;;5072775;28;20017;-68
2020/12/06 05:38:53;;;;;;;3.50;2.20;;;14.60;61.30;;;;;;5072710;28;20470;-68
2020/12/06 05:41:19;;;;;;;3.50;2.83;;;14.60;61.40;;;;;;5072561;28;20036;-68
2020/12/06 05:43:44;;;;;;;2.15;1.95;;;14.50;61.30;;;;;;5072444;28;20032;-68
2020/12/06 05:46:14;;;;;;;3.10;2.20;;;14.60;61.40;;;;;;5072677;28;20046;-68
2020/12/06 05:48:42;;;;;;;2.78;2.25;;;14.50;61.40;;;;;;5073038;28;20016;-68
2020/12/06 05:51:09;;;;;;;2.10;1.90;;;14.50;61.40;;;;;;5072574;28;20024;-68
2020/12/06 05:53:35;;;;;;;2.95;2.13;;;14.40;61.40;;;;;;5072202;28;20050;-68
2020/12/06 05:56:17;;;;;;;2.60;2.40;;;14.40;61.60;;;;;;5072559;28;20107;-68
2020/12/06 05:58:45;;;;;;;2.15;1.95;;;14.50;61.40;;;;;;5072643;28;20067;-68
2020/12/06 06:01:12;;;;;;;2.65;2.38;;;14.60;61.30;;;;;;5072442;28;20043;-68
2020/12/06 06:03:42;;;;;;;2.83;2.28;;;14.60;61.40;;;;;;5072149;28;20032;-68
2020/12/06 06:06:13;;;;;;;2.58;2.10;;;14.70;61.30;;;;;;5072506;28;20464;-68
2020/12/06 06:08:41;;;;;;;2.13;1.92;;;14.70;62.10;;;;;;5072451;28;20025;-68
2020/12/06 06:11:23;;;;;;;3.33;2.13;;;14.80;61.40;;;;;;5072097;28;20498;-68
2020/12/06 06:14:07;;;;;;;2.42;1.95;;;14.80;61.50;;;;;;5072299;28;20050;-68
2020/12/06 06:16:34;;;;;;;2.10;1.90;;;14.80;61.30;;;;;;5072146;28;20070;-68
2020/12/06 06:19:02;;;;;;;2.58;1.88;;;14.90;61.50;;;;;;5072316;28;20020;-68
2020/12/06 06:21:40;;;;;;;2.47;2.28;;;14.90;61.50;;;;;;5072242;28;20029;-68
2020/12/06 06:24:08;;;;;;;2.95;2.15;;;14.90;61.50;;;;;;5072242;28;20047;-68
2020/12/06 06:26:40;;;;;;;2.67;1.88;;;15.00;61.40;;;;;;5071952;28;20024;-68
2020/12/06 06:29:12;;;;;;;2.00;1.70;;;15.00;61.40;;;;;;5072330;28;20055;-68
2020/12/06 06:31:39;;;;;;;3.90;2.40;;;14.80;61.10;;;;;;5074365;28;20381;-68
2020/12/06 06:34:06;;;;;;;2.22;2.03;;;14.90;61.20;;;;;;5076011;28;20021;-68
2020/12/06 06:36:33;;;;;;;2.10;1.90;;;14.90;61.20;;;;;;5075922;28;20074;-68
2020/12/06 06:39:00;;;;;;;3.17;2.13;;;14.90;61.20;;;;;;5057660;28;20035;-68
2020/12/06 06:41:27;;;;;;;3.15;2.20;;;14.90;61.10;;;;;;5075462;28;20036;-68
2020/12/06 06:44:00;;;;;;;2.55;2.10;;;14.90;61.20;;;;;;5075809;28;20039;-68
2020/12/06 06:46:34;;;;;;;2.55;2.35;;;14.80;61.00;;;;;;5075757;28;20052;-68
2020/12/06 06:49:11;;;;;;;2.63;2.40;;;14.70;61.00;;;;;;5075755;28;20421;-68
2020/12/06 06:51:37;;;;;;;2.60;2.25;;;14.80;61.00;;;;;;5075707;28;20115;-68
2020/12/06 06:54:07;;;;;;;2.75;2.10;;;14.70;60.80;;;;;;5075565;28;20100;-68
2020/12/06 06:56:48;;;;;;;1.90;1.67;;;14.70;60.70;;;;;;5075356;28;20028;-68
2020/12/06 06:59:14;;;;;;;2.30;2.10;;;14.70;60.80;;;;;;5075582;28;20017;-68
2020/12/06 07:01:50;;;;;;;2.30;2.10;;;14.70;60.60;;;;;;5075102;28;20585;-68
2020/12/06 07:04:19;;;;;;;2.10;1.90;;;14.60;60.60;;;;;;5075450;28;20032;-68
2020/12/06 07:06:50;;;;;;;2.88;2.38;;;14.60;60.70;;;;;;5075134;28;20501;-68
2020/12/06 07:09:27;;;;;;;2.33;2.13;;;14.60;60.70;;;;;;5075153;28;20509;-68
2020/12/06 07:11:58;;;;;;;2.40;2.08;;;14.60;60.80;;;;;;5075145;28;20038;-68
2020/12/06 07:14:26;;;;;;;2.00;1.90;;;14.60;60.90;;;;;;5075302;28;20386;-68
2020/12/06 07:16:54;;;;;;;2.92;2.20;;;14.60;61.60;;;;;;5057646;28;20024;-68
2020/12/06 07:19:20;;;;;;;2.60;2.40;;;14.60;60.90;;;;;;5074951;28;20025;-68
2020/12/06 07:21:48;;;;;;;2.85;2.30;;;14.70;61.00;;;;;;5075022;28;20514;-68
2020/12/06 07:24:14;;;;;;;1.90;1.75;;;14.70;60.80;;;;;;5075095;28;20024;-68
2020/12/06 07:26:42;;;;;;;2.88;2.30;;;14.80;61.00;;;;;;5075010;28;20040;-68
2020/12/06 07:29:07;;;;;;;2.10;1.90;;;14.60;60.80;;;;;;5075353;28;20406;-68
2020/12/06 07:31:33;;;;;;;2.13;1.90;;;14.90;61.00;;;;;;5074924;28;20111;-68
2020/12/06 07:34:00;;;;;;;2.45;2.20;;;14.90;61.30;;;;;;5074541;28;20023;-68
2020/12/06 07:36:33;;;;;;;2.20;2.00;;;14.90;61.10;;;;;;5074852;28;20163;-68
2020/12/06 07:38:59;;;;;;;2.30;2.10;;;14.90;60.90;;;;;;5074499;28;20024;-68
2020/12/06 07:41:25;;;;;;;2.33;2.13;;;14.90;61.00;;;;;;5074705;28;20033;-67
2020/12/06 07:44:01;;;;;;;2.35;2.00;;;14.90;61.10;;;;;;5073893;28;20028;-67
2020/12/06 07:46:27;;;;;;;2.95;2.08;;;14.90;61.00;;;;;;5074429;28;20379;-68
2020/12/06 07:48:57;;;;;;;2.15;1.95;;;14.90;60.90;;;;;;5074618;28;20046;-68
2020/12/06 07:51:26;;;;;;;2.70;2.25;;;14.90;60.80;;;;;;5074257;28;20124;-68
2020/12/06 07:53:53;;;;;;;2.65;2.30;;;14.90;60.90;;;;;;5074537;28;20020;-68
2020/12/06 07:56:23;;;;;;;2.70;1.95;;;14.90;60.80;;;;;;5074551;28;20043;-67
2020/12/06 07:58:51;;;;;;;;;;;15.00;60.80;;;;;;5074942;28;20017;-68
2020/12/06 08:01:17;;;;;;;2.50;2.30;;;15.00;60.70;;;;;;5074364;28;19920;-68
2020/12/06 08:03:43;;;;;;;2.45;2.25;;;15.00;60.80;;;;;;5074141;28;20044;-68
2020/12/06 08:06:10;;;;;;;2.40;2.15;;;15.00;60.40;;;;;;5074234;28;20051;-67
2020/12/06 08:08:39;;;;;;;3.10;2.33;;;15.00;60.50;;;;;;5074078;28;20031;-68
2020/12/06 08:11:07;;;;;;;2.33;2.13;;;14.90;60.40;;;;;;5074016;28;20486;-68
2020/12/06 08:13:33;;;;;;;2.78;2.20;;;14.90;60.50;;;;;;5074158;28;20021;-68
2020/12/06 08:16:09;;;;;;;3.70;2.63;;;14.90;60.40;;;;;;5074063;28;20017;-68
2020/12/06 08:18:34;;;;;;;3.13;2.75;;;14.90;60.00;;;;;;5055887;28;20533;-68
2020/12/06 08:21:00;;;;;;;3.47;2.53;;;14.90;59.60;;;;;;5073996;28;20021;-68
2020/12/06 08:23:36;;;;;;;3.45;2.90;;;14.80;59.30;;;;;;5073595;28;20032;-68
2020/12/06 08:26:04;;;;;;;4.28;3.38;;;14.80;59.50;;;;;;5073945;28;20048;-67
2020/12/06 08:28:30;;;;;;;4.28;3.05;;;14.80;59.10;;;;;;5073995;28;20049;-69
2020/12/06 08:30:56;;;;;;;5.18;3.42;;;14.80;59.50;;;;;;5073658;28;20025;-68
2020/12/06 08:33:26;;;;;;;5.70;3.80;;;15.00;59.20;;;;;;5073821;28;20028;-68
2020/12/06 08:35:53;;;;;;;;;;;14.90;58.90;;;;;;5074226;28;20024;-66
2020/12/06 08:38:29;;;;;;;5.82;3.60;;;14.80;59.10;;;;;;5073336;28;20378;-68
2020/12/06 08:41:02;;;;;;;5.97;3.72;;;14.70;59.00;;;;;;5073353;28;20540;-68
2020/12/06 08:43:50;;;;;;;6.18;3.42;;;14.70;58.90;;;;;;5073230;28;20044;-68
2020/12/06 08:46:24;;;;;;;4.57;3.60;;;14.70;58.90;;;;;;5073535;28;20029;-68
2020/12/06 08:48:51;;;;;;;4.00;3.42;;;14.60;58.80;;;;;;5073253;28;20467;-68
2020/12/06 08:51:31;;;;;;;5.40;3.60;;;14.60;58.90;;;;;;5073422;28;20429;-68
2020/12/06 08:54:04;;;;;;;5.10;3.43;;;14.50;58.80;;;;;;5073343;28;20020;-68
2020/12/06 08:56:36;;;;;;;6.07;3.67;;;14.50;58.70;;;;;;5073046;28;20328;-68
2020/12/06 08:59:02;;;;;;;4.72;3.45;;;14.50;58.80;;;;;;5073141;28;20035;-68
2020/12/06 09:01:28;;;;;;;3.95;3.17;;;14.50;58.70;;;;;;5073134;28;20024;-67
2020/12/06 09:03:54;;;;;;;4.43;3.40;;;14.40;58.80;;;;;;5073091;28;20414;-68
2020/12/06 09:06:20;;;;;;;5.63;3.42;;;14.60;59.60;;;;;;5073192;28;20021;-68
2020/12/06 09:08:46;;;;;;;3.90;3.05;;;14.60;59.40;;;;;;5072789;28;20025;-68
2020/12/06 09:11:21;;;;;;;5.05;3.25;;;14.80;59.60;;;;;;5073125;28;20016;-68
2020/12/06 09:13:48;;;;;;;5.13;2.80;;;14.90;59.60;;;;;;5073410;28;20020;-68
2020/12/06 09:16:14;;;;;;;4.00;2.92;;;15.00;59.50;;;;;;5073012;28;20020;-68
2020/12/06 09:18:40;;;;;;;4.03;3.03;;;15.20;59.50;;;;;;5072988;28;20356;-68
2020/12/06 09:21:07;;;;;;;3.83;2.97;;;15.30;59.40;;;;;;5072948;28;20044;-67
2020/12/06 09:23:40;;;;;;;3.40;2.80;;;15.40;59.30;;;;;;5072627;28;20415;-68
2020/12/06 09:26:06;;;;;;;3.20;2.53;;;15.50;59.30;;;;;;5072484;28;20070;-68
2020/12/06 09:28:39;;;;;;;4.57;3.42;;;15.50;59.20;;;;;;5072818;28;20048;-66
2020/12/06 09:31:04;;;;;;;4.10;2.80;;;15.70;59.20;;;;;;5072573;28;20025;-69
2020/12/06 09:33:30;;;;;;;3.85;3.13;;;15.70;58.80;;;;;;5072739;28;20020;-67
2020/12/06 09:35:56;;;;;;;6.15;3.25;;;15.90;58.60;;;;;;5072777;28;20025;-67
2020/12/06 09:38:22;;;;;;;3.13;2.60;;;15.90;58.50;;;;;;5072699;28;20021;-68
2020/12/06 09:40:48;;;;;;;2.40;2.20;;;16.00;58.40;;;;;;5072617;28;20040;-67
2020/12/06 09:43:14;;;;;;;4.75;2.50;;;16.10;58.30;;;;;;5072292;28;20068;-67
2020/12/06 09:45:43;;;;;;;4.60;2.60;;;16.10;58.20;;;;;;5072587;28;20031;-67
2020/12/06 09:48:09;;;;;;;2.67;2.47;;;16.10;58.10;;;;;;5072319;28;20531;-68
2020/12/06 09:50:35;;;;;;;4.47;2.30;;;16.00;58.00;;;;;;5073151;28;20120;-68
2020/12/06 09:53:01;;;;;;;3.10;2.40;;;16.10;58.20;;;;;;5072439;28;20021;-68
2020/12/06 09:55:27;;;;;;;5.20;2.78;;;16.10;58.00;;;;;;5072313;28;20024;-68
2020/12/06 09:57:52;;;;;;;2.90;2.70;;;16.20;57.90;;;;;;5072380;28;20188;-68
2020/12/06 10:00:18;;;;;;;4.45;2.60;;;16.40;57.70;;;;;;5072903;28;20055;-68
2020/12/06 10:02:44;;;;;;;2.55;2.35;;;16.40;57.50;;;;;;5072813;28;20239;-66
2020/12/06 10:05:11;;;;;;;3.20;2.42;;;16.50;57.20;;;;;;5072761;28;20020;-67
2020/12/06 10:07:37;;;;;;;3.55;2.40;;;16.70;57.00;;;;;;5076676;28;20383;-67
2020/12/06 10:10:07;;;;;;;4.72;2.72;;;16.80;57.40;;;;;;5058409;28;20027;-68
2020/12/06 10:12:33;;;;;;;9.57;2.47;;;16.90;56.50;;;;;;5076262;28;20024;-68
2020/12/06 10:14:58;;;;;;;2.40;2.20;;;17.00;56.10;;;;;;5076224;28;20016;-68
2020/12/06 10:17:24;;;;;;;5.70;2.80;;;17.10;55.90;;;;;;5077655;28;20116;-68
2020/12/06 10:19:50;;;;;;;2.88;2.35;;;17.20;55.70;;;;;;5076776;28;20028;-68
2020/12/06 10:22:16;;;;;;;2.88;2.25;;;17.30;55.60;;;;;;5077252;28;20107;-68
2020/12/06 10:24:41;;;;;;;6.80;2.28;;;17.40;55.40;;;;;;5076365;28;20498;-67
2020/12/06 10:27:07;;;;;;;2.25;2.05;;;17.40;55.20;;;;;;5076009;28;20054;-67
2020/12/06 10:29:39;;;;;;;2.67;2.13;;;17.50;55.10;;;;;;5076579;28;20298;-69
2020/12/06 10:32:05;;;;;;;4.25;2.58;;;17.50;55.00;;;;;;5076466;28;20079;-67
2020/12/06 10:34:30;;;;;;;4.10;2.10;;;17.50;54.90;;;;;;5075851;28;20032;-67
2020/12/06 10:36:57;;;;;;;2.83;2.38;;;17.60;54.90;;;;;;5076195;28;20024;-68
2020/12/06 10:39:24;;;;;;;2.42;2.22;;;17.70;54.60;;;;;;5076155;28;20040;-67
2020/12/06 10:41:51;;;;;;;4.30;2.05;;;17.70;54.70;;;;;;5075999;28;20033;-67
2020/12/06 10:44:17;;;;;;;2.67;2.47;;;17.70;54.60;;;;;;5075721;28;20493;-67
2020/12/06 10:46:44;;;;;;;2.80;2.58;;;17.80;54.50;;;;;;5076298;28;20009;-67
2020/12/06 10:49:09;;;;;;;2.60;2.40;;;17.90;54.50;;;;;;5075701;28;20025;-65
2020/12/06 10:51:38;;;;;;;9.00;2.50;;;17.90;54.40;;;;;;5075738;28;20028;-67
2020/12/06 10:54:04;;;;;;;3.03;2.20;;;17.90;54.40;;;;;;5075455;28;20032;-67
2020/12/06 10:56:29;;;;;;;2.28;1.85;;;17.90;54.30;;;;;;5075236;28;20020;-67
2020/12/06 10:58:55;;;;;;;3.58;2.50;;;18.00;54.10;;;;;;5075648;28;20048;-66
2020/12/06 11:01:32;;;;;;;2.70;1.88;;;18.00;53.50;;;;;;5075668;28;20386;-67
2020/12/06 11:03:58;;;;;;;2.95;2.10;;;18.00;54.00;;;;;;5076225;28;20020;-67
2020/12/06 11:06:24;;;;;;;3.40;2.08;;;17.90;54.00;;;;;;5075697;28;20051;-67
2020/12/06 11:08:51;;;;;;;2.38;2.13;;;18.00;54.20;;;;;;5075316;28;20020;-67
2020/12/06 11:11:18;;;;;;;2.30;2.10;;;18.00;53.90;;;;;;5075607;28;20047;-67
2020/12/06 11:13:45;;;;;;;2.42;1.80;;;17.90;54.20;;;;;;5075803;28;20079;-67
2020/12/06 11:16:15;;;;;;;2.60;2.17;;;17.90;54.30;;;;;;5075518;28;20029;-67
2020/12/06 11:18:41;;;;;;;3.53;2.17;;;17.80;54.40;;;;;;5074356;28;20074;-67
2020/12/06 11:21:06;;;;;;;3.83;2.08;;;17.80;54.70;;;;;;5075999;28;20025;-67
2020/12/06 11:23:32;;;;;;;3.35;2.30;;;17.70;54.60;;;;;;5075356;28;20032;-67
2020/12/06 11:25:57;;;;;;;3.92;2.00;;;17.70;54.80;;;;;;5075151;28;20028;-67
2020/12/06 11:28:23;;;;;;;3.42;2.00;;;17.70;54.90;;;;;;5075424;28;20059;-67
2020/12/06 11:30:48;;;;;;;2.63;2.10;;;17.70;55.10;;;;;;5075430;28;20024;-67
2020/12/06 11:33:14;;;;;;;2.65;2.45;;;17.60;54.90;;;;;;5074912;28;20028;-67
2020/12/06 11:35:40;;;;;;;2.40;2.10;;;17.60;54.70;;;;;;5074801;28;20371;-67
2020/12/06 11:38:05;;;;;;;4.03;2.45;;;17.60;54.40;;;;;;5074553;28;20052;-67
2020/12/06 11:40:31;;;;;;;4.25;2.50;;;17.60;54.40;;;;;;5074834;28;20025;-67
2020/12/06 11:42:58;;;;;;;3.60;2.70;;;17.60;54.30;;;;;;5056494;28;20029;-67
2020/12/06 11:45:23;;;;;;;3.33;2.58;;;17.60;54.40;;;;;;5074681;28;20108;-67
2020/12/06 11:47:49;;;;;;;2.75;2.20;;;17.60;54.40;;;;;;5074644;28;20063;-67
2020/12/06 11:50:14;;;;;;;2.28;2.08;;;17.70;54.40;;;;;;5074647;28;20052;-67
2020/12/06 11:52:40;;;;;;;3.05;2.20;;;17.70;54.40;;;;;;5074585;28;20146;-67
2020/12/06 11:55:06;;;;;;;3.92;2.20;;;17.80;54.20;;;;;;5074162;28;20021;-67
2020/12/06 11:57:31;;;;;;;2.90;2.17;;;17.80;53.90;;;;;;5074470;28;20025;-67
2020/12/06 11:59:57;;;;;;;2.47;2.28;;;17.90;53.80;;;;;;5074187;28;20090;-64
2020/12/06 12:02:23;;;;;;;7.03;2.47;;;17.90;53.70;;;;;;5074120;28;20043;-67
2020/12/06 12:04:49;;;;;;;2.53;2.33;;;17.90;53.70;;;;;;5074281;28;20048;-68
2020/12/06 12:07:15;;;;;;;2.42;2.22;;;17.90;53.60;;;;;;5074278;28;20033;-67
2020/12/06 12:09:40;;;;;;;2.67;2.47;;;17.80;53.50;;;;;;5074189;28;20035;-68
2020/12/06 12:12:06;;;;;;;2.72;2.25;;;17.70;53.80;;;;;;5073935;28;20028;-68
2020/12/06 12:14:31;;;;;;;3.67;2.67;;;17.70;53.50;;;;;;5074049;28;20478;-68
2020/12/06 12:16:57;;;;;;;4.10;2.60;;;17.60;53.80;;;;;;5073996;28;20032;-68
2020/12/06 12:19:23;;;;;;;3.55;2.95;;;17.50;53.70;;;;;;5073743;28;20071;-67
2020/12/06 12:21:48;;;;;;;2.83;2.63;;;17.40;53.70;;;;;;5073859;28;20024;-67
2020/12/06 12:24:14;;;;;;;3.05;2.30;;;17.40;53.70;;;;;;5073821;28;20202;-67
2020/12/06 12:26:39;;;;;;;2.72;2.50;;;17.30;53.70;;;;;;5073584;28;20422;-68
2020/12/06 12:29:05;;;;;;;3.17;2.88;;;17.30;53.70;;;;;;5073382;28;20107;-68
2020/12/06 12:31:32;;;;;;;3.40;2.75;;;17.20;53.80;;;;;;5073413;28;20066;-68
2020/12/06 12:33:58;;;;;;;2.75;2.33;;;17.10;53.60;;;;;;5072783;28;20438;-68
2020/12/06 12:36:24;;;;;;;2.63;2.38;;;17.10;53.90;;;;;;5072802;28;20414;-65
2020/12/06 12:38:50;;;;;;;3.53;2.78;;;17.00;53.90;;;;;;5073297;28;20075;-68
2020/12/06 12:41:16;;;;;;;4.97;3.53;;;17.00;54.00;;;;;;5073221;28;20024;-69
2020/12/06 12:43:41;;;;;;;3.33;3.03;;;17.00;53.90;;;;;;5071772;28;20502;-69
2020/12/06 12:46:07;;;;;;;3.45;2.85;;;17.00;53.80;;;;;;5072918;28;20021;-69
2020/12/06 12:48:33;;;;;;;2.78;2.58;;;17.00;53.90;;;;;;5073440;28;20032;-69